CheckWX is a tool to help pilots better visualize weather data.  It is not intended as a substitute for an official pre-flight weather briefing.

08:03:58 UTC

KFOD TAF
Fort Dodge Regional Airport
Fort Dodge, Iowa, USA
KFOD 190520Z 1906/2006 VRB03KT P6SM BKN250 FM191500 18007KT P6SM BKN110 FM191900 22008KT P6SM BKN070 FM200300 28004KT P6SM BKN040

Mar-19@
06:00 UTC

Mar-19 @ 06:00 UTC

Mar-19@
15:00 UTC

Mar-19 @ 15:00 UTC

KFOD 190520Z 1906/2006 VRB03KT P6SM BKN250
Wind
  • Variable at 3 KTS
Cloud Levels
  • Broken at 25,000' AGL

Mar-19@
15:00 UTC

Mar-19 @ 15:00 UTC

Mar-19@
19:00 UTC

Mar-19 @ 19:00 UTC

FM191500 18007KT P6SM BKN110

From

From Standard forecast or significant change

Wind
  • 180° at 7 KTS
Cloud Levels
  • Broken at 11,000' AGL

Mar-19@
19:00 UTC

Mar-19 @ 19:00 UTC

Mar-20@
03:00 UTC

Mar-20 @ 03:00 UTC

FM191900 22008KT P6SM BKN070

From

From Standard forecast or significant change

Wind
  • 220° at 8 KTS
Cloud Levels
  • Broken at 7,000' AGL

Mar-20@
03:00 UTC

Mar-20 @ 03:00 UTC

Mar-20@
06:00 UTC

Mar-20 @ 06:00 UTC

FM200300 28004KT P6SM BKN040

From

From Standard forecast or significant change

Wind
  • 280° at 4 KTS
Cloud Levels
  • Broken at 4,000' AGL